16°C Temp
15°C Dewpoint
% Humidity
Temperature
11 KM/H
7 MPH
6 KTS
100°
Due East

Wind Speed
Partly Cloudy
Conditions
Pressure 1005.92 (hPa) - 29.7 (in)
Visibility 6.2 (mi) - 10.0 (km)

Current Conditions
LIRF
Location 6(km)
Metar :LIRF 300250Z 10006KT 9999 FEW035 16/15 Q1006 NOSIG
Fri 30th September 04:50 am

Airport
  Metar Aviation API Data Provided by https://www.checkwx.com/ PHP scripts by weather34.com ©2022